sensor_id;sensor_type;location;lat;lon;timestamp;P1;durP1;ratioP1;P2;durP2;ratioP2
24485;SDS011;13449;49.374;8.584;2023-07-08T00:00:26;8.27;;;4.50;;
24485;SDS011;13449;49.374;8.584;2023-07-08T00:02:52;6.53;;;4.13;;
24485;SDS011;13449;49.374;8.584;2023-07-08T00:05:20;8.52;;;5.43;;
24485;SDS011;13449;49.374;8.584;2023-07-08T00:07:48;8.98;;;4.88;;
24485;SDS011;13449;49.374;8.584;2023-07-08T00:10:22;6.95;;;4.88;;
24485;SDS011;13449;49.374;8.584;2023-07-08T00:12:55;11.27;;;4.82;;
24485;SDS011;13449;49.374;8.584;2023-07-08T00:15:27;12.37;;;5.10;;
24485;SDS011;13449;49.374;8.584;2023-07-08T00:17:55;9.10;;;4.97;;
24485;SDS011;13449;49.374;8.584;2023-07-08T00:20:23;6.85;;;4.53;;
24485;SDS011;13449;49.374;8.584;2023-07-08T00:22:57;7.25;;;4.47;;
24485;SDS011;13449;49.374;8.584;2023-07-08T00:25:27;9.73;;;5.20;;
24485;SDS011;13449;49.374;8.584;2023-07-08T00:27:55;8.63;;;4.35;;
24485;SDS011;13449;49.374;8.584;2023-07-08T00:30:23;14.18;;;4.60;;
24485;SDS011;13449;49.374;8.584;2023-07-08T00:32:57;10.00;;;4.93;;
24485;SDS011;13449;49.374;8.584;2023-07-08T00:35:30;8.15;;;4.50;;
24485;SDS011;13449;49.374;8.584;2023-07-08T00:38:00;8.35;;;5.05;;
24485;SDS011;13449;49.374;8.584;2023-07-08T00:40:38;9.93;;;4.13;;
24485;SDS011;13449;49.374;8.584;2023-07-08T00:43:16;8.05;;;4.22;;
24485;SDS011;13449;49.374;8.584;2023-07-08T00:45:52;8.25;;;4.78;;
24485;SDS011;13449;49.374;8.584;2023-07-08T00:48:29;11.43;;;4.05;;
24485;SDS011;13449;49.374;8.584;2023-07-08T00:53:31;7.22;;;4.32;;
24485;SDS011;13449;49.374;8.584;2023-07-08T01:01:27;9.52;;;4.28;;
24485;SDS011;13449;49.374;8.584;2023-07-08T01:04:07;8.18;;;5.10;;
24485;SDS011;13449;49.374;8.584;2023-07-08T01:06:41;8.93;;;5.10;;
24485;SDS011;13449;49.374;8.584;2023-07-08T01:09:19;10.50;;;4.82;;
24485;SDS011;13449;49.374;8.584;2023-07-08T01:11:45;7.00;;;4.30;;
24485;SDS011;13449;49.374;8.584;2023-07-08T01:14:12;10.10;;;4.50;;
24485;SDS011;13449;49.374;8.584;2023-07-08T01:16:46;10.93;;;4.88;;
24485;SDS011;13449;49.374;8.584;2023-07-08T01:19:14;9.63;;;4.60;;
24485;SDS011;13449;49.374;8.584;2023-07-08T01:21:57;11.68;;;4.00;;
24485;SDS011;13449;49.374;8.584;2023-07-08T01:24:25;10.30;;;4.80;;
24485;SDS011;13449;49.374;8.584;2023-07-08T01:26:53;9.45;;;4.95;;
24485;SDS011;13449;49.374;8.584;2023-07-08T01:29:23;7.13;;;4.28;;
24485;SDS011;13449;49.374;8.584;2023-07-08T01:31:57;16.13;;;4.63;;
24485;SDS011;13449;49.374;8.584;2023-07-08T01:34:24;9.65;;;4.88;;
24485;SDS011;13449;49.374;8.584;2023-07-08T01:36:52;10.02;;;4.70;;
24485;SDS011;13449;49.374;8.584;2023-07-08T01:39:22;14.55;;;4.78;;
24485;SDS011;13449;49.374;8.584;2023-07-08T01:41:49;11.85;;;5.25;;
24485;SDS011;13449;49.374;8.584;2023-07-08T01:44:27;10.57;;;4.88;;
24485;SDS011;13449;49.374;8.584;2023-07-08T01:49:29;8.60;;;5.22;;
24485;SDS011;13449;49.374;8.584;2023-07-08T01:51:56;7.63;;;4.68;;
24485;SDS011;13449;49.374;8.584;2023-07-08T01:54:23;14.00;;;5.43;;
24485;SDS011;13449;49.374;8.584;2023-07-08T01:56:54;9.07;;;4.95;;
24485;SDS011;13449;49.374;8.584;2023-07-08T01:59:22;8.43;;;4.68;;
24485;SDS011;13449;49.374;8.584;2023-07-08T02:01:51;9.82;;;5.43;;
24485;SDS011;13449;49.374;8.584;2023-07-08T02:04:22;6.15;;;4.38;;
24485;SDS011;13449;49.374;8.584;2023-07-08T02:06:51;14.35;;;4.85;;
24485;SDS011;13449;49.374;8.584;2023-07-08T02:09:19;8.07;;;4.80;;
24485;SDS011;13449;49.374;8.584;2023-07-08T02:11:45;12.38;;;5.05;;
24485;SDS011;13449;49.374;8.584;2023-07-08T02:14:12;7.85;;;4.60;;
24485;SDS011;13449;49.374;8.584;2023-07-08T02:16:38;9.13;;;4.97;;
24485;SDS011;13449;49.374;8.584;2023-07-08T02:19:05;9.80;;;4.85;;
24485;SDS011;13449;49.374;8.584;2023-07-08T02:21:31;7.28;;;3.92;;
24485;SDS011;13449;49.374;8.584;2023-07-08T02:24:00;9.38;;;5.20;;
24485;SDS011;13449;49.374;8.584;2023-07-08T02:26:27;11.32;;;5.22;;
24485;SDS011;13449;49.374;8.584;2023-07-08T02:28:53;8.02;;;4.47;;
24485;SDS011;13449;49.374;8.584;2023-07-08T02:31:20;11.13;;;4.97;;
24485;SDS011;13449;49.374;8.584;2023-07-08T02:33:47;9.35;;;4.65;;
24485;SDS011;13449;49.374;8.584;2023-07-08T02:36:13;8.15;;;4.55;;
24485;SDS011;13449;49.374;8.584;2023-07-08T02:38:40;9.00;;;4.78;;
24485;SDS011;13449;49.374;8.584;2023-07-08T02:41:06;10.23;;;4.97;;
24485;SDS011;13449;49.374;8.584;2023-07-08T02:43:38;7.07;;;4.20;;
24485;SDS011;13449;49.374;8.584;2023-07-08T02:46:04;6.57;;;4.28;;
24485;SDS011;13449;49.374;8.584;2023-07-08T02:48:33;12.25;;;5.60;;
24485;SDS011;13449;49.374;8.584;2023-07-08T02:51:04;11.15;;;4.63;;
24485;SDS011;13449;49.374;8.584;2023-07-08T02:53:31;12.63;;;4.95;;
24485;SDS011;13449;49.374;8.584;2023-07-08T02:55:58;9.35;;;4.70;;
24485;SDS011;13449;49.374;8.584;2023-07-08T02:58:24;7.90;;;4.70;;
24485;SDS011;13449;49.374;8.584;2023-07-08T03:00:52;10.85;;;4.95;;
24485;SDS011;13449;49.374;8.584;2023-07-08T03:03:19;9.75;;;5.15;;
24485;SDS011;13449;49.374;8.584;2023-07-08T03:06:02;11.73;;;5.50;;
24485;SDS011;13449;49.374;8.584;2023-07-08T03:08:34;9.27;;;5.30;;
24485;SDS011;13449;49.374;8.584;2023-07-08T03:11:01;11.80;;;4.95;;
24485;SDS011;13449;49.374;8.584;2023-07-08T03:13:30;12.85;;;5.13;;
24485;SDS011;13449;49.374;8.584;2023-07-08T03:15:58;9.00;;;4.65;;
24485;SDS011;13449;49.374;8.584;2023-07-08T03:18:25;6.38;;;4.45;;
24485;SDS011;13449;49.374;8.584;2023-07-08T03:20:53;10.98;;;5.55;;
24485;SDS011;13449;49.374;8.584;2023-07-08T03:23:24;10.52;;;4.88;;
24485;SDS011;13449;49.374;8.584;2023-07-08T03:25:51;11.90;;;5.18;;
24485;SDS011;13449;49.374;8.584;2023-07-08T03:28:18;10.57;;;5.47;;
24485;SDS011;13449;49.374;8.584;2023-07-08T03:30:50;11.65;;;4.82;;
24485;SDS011;13449;49.374;8.584;2023-07-08T03:33:18;10.50;;;5.70;;
24485;SDS011;13449;49.374;8.584;2023-07-08T03:35:44;13.75;;;5.50;;
24485;SDS011;13449;49.374;8.584;2023-07-08T03:38:11;8.68;;;5.03;;
24485;SDS011;13449;49.374;8.584;2023-07-08T03:40:40;7.93;;;4.57;;
24485;SDS011;13449;49.374;8.584;2023-07-08T03:43:07;12.85;;;5.65;;
24485;SDS011;13449;49.374;8.584;2023-07-08T03:45:33;8.15;;;5.22;;
24485;SDS011;13449;49.374;8.584;2023-07-08T03:48:00;10.48;;;5.15;;
24485;SDS011;13449;49.374;8.584;2023-07-08T03:50:26;18.23;;;6.28;;
24485;SDS011;13449;49.374;8.584;2023-07-08T03:52:53;15.00;;;5.40;;
24485;SDS011;13449;49.374;8.584;2023-07-08T03:55:21;11.18;;;6.07;;
24485;SDS011;13449;49.374;8.584;2023-07-08T03:57:48;14.85;;;5.95;;
24485;SDS011;13449;49.374;8.584;2023-07-08T04:00:15;14.98;;;5.63;;
24485;SDS011;13449;49.374;8.584;2023-07-08T04:02:42;12.00;;;5.40;;
24485;SDS011;13449;49.374;8.584;2023-07-08T04:05:12;13.07;;;5.75;;
24485;SDS011;13449;49.374;8.584;2023-07-08T04:07:48;9.90;;;5.30;;
24485;SDS011;13449;49.374;8.584;2023-07-08T04:10:15;10.75;;;5.18;;
24485;SDS011;13449;49.374;8.584;2023-07-08T04:12:43;12.75;;;5.57;;
24485;SDS011;13449;49.374;8.584;2023-07-08T04:15:10;13.45;;;5.43;;
24485;SDS011;13449;49.374;8.584;2023-07-08T04:17:43;14.00;;;5.78;;
24485;SDS011;13449;49.374;8.584;2023-07-08T04:20:16;11.63;;;5.32;;
24485;SDS011;13449;49.374;8.584;2023-07-08T04:22:47;12.43;;;5.45;;
24485;SDS011;13449;49.374;8.584;2023-07-08T04:25:17;10.93;;;4.87;;
24485;SDS011;13449;49.374;8.584;2023-07-08T04:27:46;14.13;;;4.15;;
24485;SDS011;13449;49.374;8.584;2023-07-08T04:30:17;10.15;;;4.43;;
24485;SDS011;13449;49.374;8.584;2023-07-08T04:32:49;16.38;;;4.93;;
24485;SDS011;13449;49.374;8.584;2023-07-08T04:35:16;4.85;;;3.47;;
24485;SDS011;13449;49.374;8.584;2023-07-08T04:37:43;5.13;;;3.30;;
24485;SDS011;13449;49.374;8.584;2023-07-08T04:40:14;12.07;;;3.13;;
24485;SDS011;13449;49.374;8.584;2023-07-08T04:42:45;6.40;;;3.90;;
24485;SDS011;13449;49.374;8.584;2023-07-08T04:45:14;5.95;;;4.32;;
24485;SDS011;13449;49.374;8.584;2023-07-08T04:47:42;8.95;;;4.90;;
24485;SDS011;13449;49.374;8.584;2023-07-08T04:50:09;8.27;;;4.53;;
24485;SDS011;13449;49.374;8.584;2023-07-08T04:52:36;7.63;;;4.40;;
24485;SDS011;13449;49.374;8.584;2023-07-08T04:55:03;19.58;;;5.18;;
24485;SDS011;13449;49.374;8.584;2023-07-08T04:57:32;6.63;;;4.22;;
24485;SDS011;13449;49.374;8.584;2023-07-08T04:59:59;7.45;;;4.20;;
24485;SDS011;13449;49.374;8.584;2023-07-08T05:02:25;13.13;;;4.75;;
24485;SDS011;13449;49.374;8.584;2023-07-08T05:04:52;9.52;;;4.50;;
24485;SDS011;13449;49.374;8.584;2023-07-08T05:07:18;9.73;;;4.63;;
24485;SDS011;13449;49.374;8.584;2023-07-08T05:09:45;10.00;;;4.10;;
24485;SDS011;13449;49.374;8.584;2023-07-08T05:12:13;10.00;;;4.32;;
24485;SDS011;13449;49.374;8.584;2023-07-08T05:14:42;10.93;;;4.38;;
24485;SDS011;13449;49.374;8.584;2023-07-08T05:17:11;7.75;;;3.25;;
24485;SDS011;13449;49.374;8.584;2023-07-08T05:19:38;5.68;;;3.42;;
24485;SDS011;13449;49.374;8.584;2023-07-08T05:22:07;7.13;;;4.43;;
24485;SDS011;13449;49.374;8.584;2023-07-08T05:24:33;9.13;;;4.32;;
24485;SDS011;13449;49.374;8.584;2023-07-08T05:27:00;9.88;;;4.03;;
24485;SDS011;13449;49.374;8.584;2023-07-08T05:29:26;9.57;;;4.10;;
24485;SDS011;13449;49.374;8.584;2023-07-08T05:31:55;9.35;;;3.90;;
24485;SDS011;13449;49.374;8.584;2023-07-08T05:34:22;7.65;;;3.90;;
24485;SDS011;13449;49.374;8.584;2023-07-08T05:36:49;9.68;;;4.35;;
24485;SDS011;13449;49.374;8.584;2023-07-08T05:39:15;6.65;;;4.40;;
24485;SDS011;13449;49.374;8.584;2023-07-08T05:41:42;9.30;;;3.90;;
24485;SDS011;13449;49.374;8.584;2023-07-08T05:44:08;7.07;;;3.88;;
24485;SDS011;13449;49.374;8.584;2023-07-08T05:46:34;9.05;;;4.95;;
24485;SDS011;13449;49.374;8.584;2023-07-08T05:49:02;10.55;;;5.32;;
24485;SDS011;13449;49.374;8.584;2023-07-08T05:51:33;14.63;;;5.30;;
24485;SDS011;13449;49.374;8.584;2023-07-08T05:54:00;17.15;;;5.30;;
24485;SDS011;13449;49.374;8.584;2023-07-08T05:56:26;12.02;;;5.13;;
24485;SDS011;13449;49.374;8.584;2023-07-08T05:58:53;7.32;;;4.03;;
24485;SDS011;13449;49.374;8.584;2023-07-08T06:01:19;8.75;;;4.80;;
24485;SDS011;13449;49.374;8.584;2023-07-08T06:03:46;7.65;;;5.10;;
24485;SDS011;13449;49.374;8.584;2023-07-08T06:06:13;12.63;;;5.00;;
24485;SDS011;13449;49.374;8.584;2023-07-08T06:08:40;12.82;;;5.35;;
24485;SDS011;13449;49.374;8.584;2023-07-08T06:11:06;8.65;;;4.80;;
24485;SDS011;13449;49.374;8.584;2023-07-08T06:13:33;8.13;;;5.20;;
24485;SDS011;13449;49.374;8.584;2023-07-08T06:15:59;11.93;;;4.78;;
24485;SDS011;13449;49.374;8.584;2023-07-08T06:18:28;9.48;;;4.68;;
24485;SDS011;13449;49.374;8.584;2023-07-08T06:20:55;7.93;;;4.72;;
24485;SDS011;13449;49.374;8.584;2023-07-08T06:23:24;11.65;;;4.65;;
24485;SDS011;13449;49.374;8.584;2023-07-08T06:25:51;11.63;;;5.05;;
24485;SDS011;13449;49.374;8.584;2023-07-08T06:28:17;12.27;;;5.22;;
24485;SDS011;13449;49.374;8.584;2023-07-08T06:30:47;10.35;;;5.07;;
24485;SDS011;13449;49.374;8.584;2023-07-08T06:33:14;10.57;;;4.43;;
24485;SDS011;13449;49.374;8.584;2023-07-08T06:35:41;8.18;;;4.60;;
24485;SDS011;13449;49.374;8.584;2023-07-08T06:38:08;8.93;;;5.18;;
24485;SDS011;13449;49.374;8.584;2023-07-08T06:40:34;7.10;;;4.60;;
24485;SDS011;13449;49.374;8.584;2023-07-08T06:43:02;11.02;;;4.80;;
24485;SDS011;13449;49.374;8.584;2023-07-08T06:45:29;15.20;;;4.82;;
24485;SDS011;13449;49.374;8.584;2023-07-08T06:47:57;11.00;;;5.13;;
24485;SDS011;13449;49.374;8.584;2023-07-08T06:50:24;7.63;;;4.85;;
24485;SDS011;13449;49.374;8.584;2023-07-08T06:52:51;10.52;;;4.72;;
24485;SDS011;13449;49.374;8.584;2023-07-08T06:55:17;7.53;;;4.07;;
24485;SDS011;13449;49.374;8.584;2023-07-08T06:57:44;5.50;;;3.85;;
24485;SDS011;13449;49.374;8.584;2023-07-08T07:00:13;8.90;;;4.68;;
24485;SDS011;13449;49.374;8.584;2023-07-08T07:02:40;7.20;;;4.40;;
24485;SDS011;13449;49.374;8.584;2023-07-08T07:05:07;11.23;;;4.93;;
24485;SDS011;13449;49.374;8.584;2023-07-08T07:07:33;10.00;;;4.20;;
24485;SDS011;13449;49.374;8.584;2023-07-08T07:10:00;6.57;;;4.65;;
24485;SDS011;13449;49.374;8.584;2023-07-08T07:12:30;5.45;;;3.95;;
24485;SDS011;13449;49.374;8.584;2023-07-08T07:15:05;12.23;;;5.55;;
24485;SDS011;13449;49.374;8.584;2023-07-08T07:17:32;7.45;;;4.85;;
24485;SDS011;13449;49.374;8.584;2023-07-08T07:19:58;7.07;;;3.70;;
24485;SDS011;13449;49.374;8.584;2023-07-08T07:22:25;7.50;;;4.10;;
24485;SDS011;13449;49.374;8.584;2023-07-08T07:24:51;6.53;;;3.78;;
24485;SDS011;13449;49.374;8.584;2023-07-08T07:27:20;10.63;;;5.60;;
24485;SDS011;13449;49.374;8.584;2023-07-08T07:29:50;8.23;;;4.38;;
24485;SDS011;13449;49.374;8.584;2023-07-08T07:32:17;11.43;;;4.32;;
24485;SDS011;13449;49.374;8.584;2023-07-08T07:34:48;7.80;;;3.90;;
24485;SDS011;13449;49.374;8.584;2023-07-08T07:37:16;11.45;;;4.65;;
24485;SDS011;13449;49.374;8.584;2023-07-08T07:39:49;7.65;;;3.95;;
24485;SDS011;13449;49.374;8.584;2023-07-08T07:42:16;11.07;;;4.35;;
24485;SDS011;13449;49.374;8.584;2023-07-08T07:44:47;9.02;;;4.05;;
24485;SDS011;13449;49.374;8.584;2023-07-08T07:47:13;7.32;;;4.25;;
24485;SDS011;13449;49.374;8.584;2023-07-08T07:49:40;7.90;;;3.47;;
24485;SDS011;13449;49.374;8.584;2023-07-08T07:52:07;4.93;;;3.00;;
24485;SDS011;13449;49.374;8.584;2023-07-08T07:54:34;8.23;;;3.30;;
24485;SDS011;13449;49.374;8.584;2023-07-08T07:57:00;6.57;;;3.00;;
24485;SDS011;13449;49.374;8.584;2023-07-08T07:59:26;4.82;;;2.70;;
24485;SDS011;13449;49.374;8.584;2023-07-08T08:01:53;5.43;;;2.33;;
24485;SDS011;13449;49.374;8.584;2023-07-08T08:04:19;9.13;;;2.78;;
24485;SDS011;13449;49.374;8.584;2023-07-08T08:06:46;4.50;;;2.38;;
24485;SDS011;13449;49.374;8.584;2023-07-08T08:09:13;4.57;;;2.65;;
24485;SDS011;13449;49.374;8.584;2023-07-08T08:11:44;4.15;;;2.47;;
24485;SDS011;13449;49.374;8.584;2023-07-08T08:14:11;5.07;;;2.42;;
24485;SDS011;13449;49.374;8.584;2023-07-08T08:16:38;2.83;;;1.95;;
24485;SDS011;13449;49.374;8.584;2023-07-08T08:19:04;11.85;;;2.55;;
24485;SDS011;13449;49.374;8.584;2023-07-08T08:21:34;3.25;;;1.60;;
24485;SDS011;13449;49.374;8.584;2023-07-08T08:24:01;11.40;;;3.00;;
24485;SDS011;13449;49.374;8.584;2023-07-08T08:26:27;4.72;;;2.35;;
24485;SDS011;13449;49.374;8.584;2023-07-08T08:28:54;8.02;;;1.92;;
24485;SDS011;13449;49.374;8.584;2023-07-08T08:31:21;8.82;;;2.25;;
24485;SDS011;13449;49.374;8.584;2023-07-08T08:33:50;11.15;;;2.00;;
24485;SDS011;13449;49.374;8.584;2023-07-08T08:36:20;7.53;;;2.53;;
24485;SDS011;13449;49.374;8.584;2023-07-08T08:38:49;8.85;;;2.20;;
24485;SDS011;13449;49.374;8.584;2023-07-08T08:41:18;3.60;;;2.10;;
24485;SDS011;13449;49.374;8.584;2023-07-08T08:43:52;6.32;;;2.25;;
24485;SDS011;13449;49.374;8.584;2023-07-08T08:46:38;3.97;;;1.90;;
24485;SDS011;13449;49.374;8.584;2023-07-08T08:51:44;11.55;;;2.00;;
24485;SDS011;13449;49.374;8.584;2023-07-08T08:54:10;8.38;;;2.08;;
24485;SDS011;13449;49.374;8.584;2023-07-08T08:56:48;4.07;;;1.85;;
24485;SDS011;13449;49.374;8.584;2023-07-08T08:59:45;3.97;;;1.95;;
24485;SDS011;13449;49.374;8.584;2023-07-08T09:04:45;4.68;;;2.10;;
24485;SDS011;13449;49.374;8.584;2023-07-08T09:07:13;7.45;;;2.10;;
24485;SDS011;13449;49.374;8.584;2023-07-08T09:12:33;8.65;;;2.80;;
24485;SDS011;13449;49.374;8.584;2023-07-08T09:15:10;3.45;;;2.25;;
24485;SDS011;13449;49.374;8.584;2023-07-08T09:17:42;6.80;;;2.72;;
24485;SDS011;13449;49.374;8.584;2023-07-08T09:25:44;6.40;;;2.15;;
24485;SDS011;13449;49.374;8.584;2023-07-08T09:28:17;9.75;;;2.40;;
24485;SDS011;13449;49.374;8.584;2023-07-08T09:30:47;8.07;;;2.30;;
24485;SDS011;13449;49.374;8.584;2023-07-08T09:33:15;5.93;;;2.65;;
24485;SDS011;13449;49.374;8.584;2023-07-08T09:35:45;5.93;;;2.65;;
24485;SDS011;13449;49.374;8.584;2023-07-08T09:38:16;8.07;;;3.13;;
24485;SDS011;13449;49.374;8.584;2023-07-08T09:40:47;10.07;;;4.30;;
24485;SDS011;13449;49.374;8.584;2023-07-08T09:43:24;9.95;;;3.40;;
24485;SDS011;13449;49.374;8.584;2023-07-08T09:46:04;12.13;;;2.88;;
24485;SDS011;13449;49.374;8.584;2023-07-08T09:48:36;10.18;;;3.22;;
24485;SDS011;13449;49.374;8.584;2023-07-08T09:51:04;4.60;;;2.42;;
24485;SDS011;13449;49.374;8.584;2023-07-08T09:53:31;3.70;;;2.30;;
24485;SDS011;13449;49.374;8.584;2023-07-08T09:56:03;6.70;;;2.95;;
24485;SDS011;13449;49.374;8.584;2023-07-08T09:58:31;6.13;;;2.45;;
24485;SDS011;13449;49.374;8.584;2023-07-08T10:01:01;15.07;;;3.90;;
24485;SDS011;13449;49.374;8.584;2023-07-08T10:03:35;6.93;;;2.97;;
24485;SDS011;13449;49.374;8.584;2023-07-08T10:06:16;13.20;;;3.13;;
24485;SDS011;13449;49.374;8.584;2023-07-08T10:08:48;6.82;;;2.70;;
24485;SDS011;13449;49.374;8.584;2023-07-08T10:13:55;9.52;;;2.55;;
24485;SDS011;13449;49.374;8.584;2023-07-08T10:16:39;6.93;;;3.25;;
24485;SDS011;13449;49.374;8.584;2023-07-08T10:19:12;11.63;;;2.80;;
24485;SDS011;13449;49.374;8.584;2023-07-08T10:24:45;8.35;;;2.78;;
24485;SDS011;13449;49.374;8.584;2023-07-08T10:27:22;5.10;;;2.63;;
24485;SDS011;13449;49.374;8.584;2023-07-08T10:30:40;3.72;;;2.50;;
24485;SDS011;13449;49.374;8.584;2023-07-08T10:33:30;12.55;;;2.83;;
24485;SDS011;13449;49.374;8.584;2023-07-08T10:39:09;9.48;;;3.03;;
24485;SDS011;13449;49.374;8.584;2023-07-08T10:44:26;5.38;;;2.83;;
24485;SDS011;13449;49.374;8.584;2023-07-08T10:55:20;8.55;;;3.03;;
24485;SDS011;13449;49.374;8.584;2023-07-08T11:00:39;7.03;;;3.53;;
24485;SDS011;13449;49.374;8.584;2023-07-08T11:05:52;8.27;;;2.88;;
24485;SDS011;13449;49.374;8.584;2023-07-08T11:08:27;7.82;;;2.30;;
24485;SDS011;13449;49.374;8.584;2023-07-08T11:11:22;6.80;;;2.65;;
24485;SDS011;13449;49.374;8.584;2023-07-08T11:14:09;11.38;;;3.88;;
24485;SDS011;13449;49.374;8.584;2023-07-08T11:16:44;4.13;;;2.83;;
24485;SDS011;13449;49.374;8.584;2023-07-08T11:19:26;6.60;;;2.22;;
24485;SDS011;13449;49.374;8.584;2023-07-08T11:22:10;7.18;;;3.33;;
24485;SDS011;13449;49.374;8.584;2023-07-08T11:24:49;4.95;;;2.83;;
24485;SDS011;13449;49.374;8.584;2023-07-08T11:32:45;6.55;;;2.72;;
24485;SDS011;13449;49.374;8.584;2023-07-08T11:35:57;5.72;;;2.47;;
24485;SDS011;13449;49.374;8.584;2023-07-08T11:38:14;11.95;;;3.10;;
24485;SDS011;13449;49.374;8.584;2023-07-08T11:43:19;7.88;;;2.88;;
24485;SDS011;13449;49.374;8.584;2023-07-08T11:45:50;3.63;;;2.28;;
24485;SDS011;13449;49.374;8.584;2023-07-08T11:48:25;4.20;;;2.85;;
24485;SDS011;13449;49.374;8.584;2023-07-08T11:50:56;6.65;;;3.00;;
24485;SDS011;13449;49.374;8.584;2023-07-08T11:56:01;10.10;;;2.90;;
24485;SDS011;13449;49.374;8.584;2023-07-08T11:58:57;5.18;;;2.88;;
24485;SDS011;13449;49.374;8.584;2023-07-08T12:01:40;8.50;;;3.03;;
24485;SDS011;13449;49.374;8.584;2023-07-08T12:04:23;6.05;;;2.70;;
24485;SDS011;13449;49.374;8.584;2023-07-08T12:07:36;5.90;;;2.65;;
24485;SDS011;13449;49.374;8.584;2023-07-08T12:09:46;5.35;;;2.50;;
24485;SDS011;13449;49.374;8.584;2023-07-08T12:12:20;11.73;;;3.33;;
24485;SDS011;13449;49.374;8.584;2023-07-08T12:14:50;3.65;;;2.33;;
24485;SDS011;13449;49.374;8.584;2023-07-08T12:17:24;6.72;;;3.33;;
24485;SDS011;13449;49.374;8.584;2023-07-08T12:19:51;5.15;;;2.35;;
24485;SDS011;13449;49.374;8.584;2023-07-08T12:22:20;5.63;;;2.65;;
24485;SDS011;13449;49.374;8.584;2023-07-08T12:24:52;6.22;;;2.92;;
24485;SDS011;13449;49.374;8.584;2023-07-08T12:27:21;7.25;;;2.80;;
24485;SDS011;13449;49.374;8.584;2023-07-08T12:29:48;5.65;;;2.63;;
24485;SDS011;13449;49.374;8.584;2023-07-08T12:32:16;5.55;;;2.40;;
24485;SDS011;13449;49.374;8.584;2023-07-08T12:34:42;13.32;;;3.13;;
24485;SDS011;13449;49.374;8.584;2023-07-08T12:37:10;8.80;;;2.40;;
24485;SDS011;13449;49.374;8.584;2023-07-08T12:39:38;6.63;;;2.70;;
24485;SDS011;13449;49.374;8.584;2023-07-08T12:42:08;8.10;;;2.88;;
24485;SDS011;13449;49.374;8.584;2023-07-08T12:44:38;8.85;;;2.67;;
24485;SDS011;13449;49.374;8.584;2023-07-08T12:47:08;6.95;;;2.35;;
24485;SDS011;13449;49.374;8.584;2023-07-08T12:49:37;7.28;;;2.90;;
24485;SDS011;13449;49.374;8.584;2023-07-08T12:52:17;12.10;;;2.90;;
24485;SDS011;13449;49.374;8.584;2023-07-08T12:54:51;4.57;;;2.60;;
24485;SDS011;13449;49.374;8.584;2023-07-08T12:57:18;12.40;;;3.35;;
24485;SDS011;13449;49.374;8.584;2023-07-08T12:59:47;6.10;;;2.78;;
24485;SDS011;13449;49.374;8.584;2023-07-08T13:02:17;11.50;;;2.47;;
24485;SDS011;13449;49.374;8.584;2023-07-08T13:04:48;4.78;;;2.47;;
24485;SDS011;13449;49.374;8.584;2023-07-08T13:10:04;9.75;;;3.08;;
24485;SDS011;13449;49.374;8.584;2023-07-08T13:12:33;11.75;;;2.40;;
24485;SDS011;13449;49.374;8.584;2023-07-08T13:15:04;10.35;;;2.67;;
24485;SDS011;13449;49.374;8.584;2023-07-08T13:17:38;6.28;;;2.67;;
24485;SDS011;13449;49.374;8.584;2023-07-08T13:20:09;5.00;;;2.92;;
24485;SDS011;13449;49.374;8.584;2023-07-08T13:22:41;5.30;;;2.28;;
24485;SDS011;13449;49.374;8.584;2023-07-08T13:25:15;5.30;;;2.35;;
24485;SDS011;13449;49.374;8.584;2023-07-08T13:28:22;4.68;;;2.50;;
24485;SDS011;13449;49.374;8.584;2023-07-08T13:30:53;6.20;;;2.33;;
24485;SDS011;13449;49.374;8.584;2023-07-08T13:33:20;4.85;;;2.60;;
24485;SDS011;13449;49.374;8.584;2023-07-08T13:35:50;13.43;;;2.60;;
24485;SDS011;13449;49.374;8.584;2023-07-08T13:38:19;10.95;;;2.60;;
24485;SDS011;13449;49.374;8.584;2023-07-08T13:40:48;4.60;;;2.38;;
24485;SDS011;13449;49.374;8.584;2023-07-08T13:43:22;6.72;;;2.28;;
24485;SDS011;13449;49.374;8.584;2023-07-08T13:45:53;6.60;;;2.42;;
24485;SDS011;13449;49.374;8.584;2023-07-08T13:48:27;6.75;;;2.28;;
24485;SDS011;13449;49.374;8.584;2023-07-08T13:53:49;2.55;;;2.10;;
24485;SDS011;13449;49.374;8.584;2023-07-08T13:56:22;3.33;;;2.45;;
24485;SDS011;13449;49.374;8.584;2023-07-08T13:59:00;11.32;;;2.30;;
24485;SDS011;13449;49.374;8.584;2023-07-08T14:01:30;3.20;;;2.00;;
24485;SDS011;13449;49.374;8.584;2023-07-08T14:03:58;6.93;;;2.30;;
24485;SDS011;13449;49.374;8.584;2023-07-08T14:06:33;4.22;;;2.03;;
24485;SDS011;13449;49.374;8.584;2023-07-08T14:09:21;5.25;;;3.08;;
24485;SDS011;13449;49.374;8.584;2023-07-08T14:11:49;10.13;;;2.17;;
24485;SDS011;13449;49.374;8.584;2023-07-08T14:14:17;5.30;;;2.72;;
24485;SDS011;13449;49.374;8.584;2023-07-08T14:16:45;4.45;;;2.35;;
24485;SDS011;13449;49.374;8.584;2023-07-08T14:19:16;5.75;;;1.90;;
24485;SDS011;13449;49.374;8.584;2023-07-08T14:21:46;5.15;;;2.30;;
24485;SDS011;13449;49.374;8.584;2023-07-08T14:26:44;4.55;;;2.50;;
24485;SDS011;13449;49.374;8.584;2023-07-08T14:29:11;4.82;;;2.03;;
24485;SDS011;13449;49.374;8.584;2023-07-08T14:31:42;5.65;;;1.88;;
24485;SDS011;13449;49.374;8.584;2023-07-08T14:34:11;5.53;;;3.50;;
24485;SDS011;13449;49.374;8.584;2023-07-08T14:36:41;5.90;;;2.43;;
24485;SDS011;13449;49.374;8.584;2023-07-08T14:39:09;3.92;;;1.85;;
24485;SDS011;13449;49.374;8.584;2023-07-08T14:41:40;3.50;;;1.83;;
24485;SDS011;13449;49.374;8.584;2023-07-08T14:46:57;11.02;;;2.08;;
24485;SDS011;13449;49.374;8.584;2023-07-08T14:49:28;5.00;;;1.80;;
24485;SDS011;13449;49.374;8.584;2023-07-08T14:51:55;11.15;;;1.77;;
24485;SDS011;13449;49.374;8.584;2023-07-08T14:54:21;2.28;;;1.73;;
24485;SDS011;13449;49.374;8.584;2023-07-08T14:56:48;6.13;;;2.42;;
24485;SDS011;13449;49.374;8.584;2023-07-08T14:59:17;3.88;;;1.77;;
24485;SDS011;13449;49.374;8.584;2023-07-08T15:01:46;4.07;;;1.65;;
24485;SDS011;13449;49.374;8.584;2023-07-08T15:04:17;3.65;;;1.65;;
24485;SDS011;13449;49.374;8.584;2023-07-08T15:06:45;5.13;;;1.75;;
24485;SDS011;13449;49.374;8.584;2023-07-08T15:09:15;8.90;;;2.20;;
24485;SDS011;13449;49.374;8.584;2023-07-08T15:11:43;5.57;;;1.83;;
24485;SDS011;13449;49.374;8.584;2023-07-08T15:14:18;3.42;;;1.67;;
24485;SDS011;13449;49.374;8.584;2023-07-08T15:16:51;3.55;;;1.88;;
24485;SDS011;13449;49.374;8.584;2023-07-08T15:19:18;4.70;;;2.28;;
24485;SDS011;13449;49.374;8.584;2023-07-08T15:21:47;3.13;;;1.70;;
24485;SDS011;13449;49.374;8.584;2023-07-08T15:24:14;5.45;;;1.70;;
24485;SDS011;13449;49.374;8.584;2023-07-08T15:26:44;9.05;;;1.98;;
24485;SDS011;13449;49.374;8.584;2023-07-08T15:29:16;2.15;;;1.63;;
24485;SDS011;13449;49.374;8.584;2023-07-08T15:31:45;5.15;;;1.77;;
24485;SDS011;13449;49.374;8.584;2023-07-08T15:34:13;4.72;;;2.03;;
24485;SDS011;13449;49.374;8.584;2023-07-08T15:36:47;7.53;;;2.33;;
24485;SDS011;13449;49.374;8.584;2023-07-08T15:39:14;4.32;;;1.85;;
24485;SDS011;13449;49.374;8.584;2023-07-08T15:41:41;3.97;;;1.90;;
24485;SDS011;13449;49.374;8.584;2023-07-08T15:44:09;4.28;;;1.92;;
24485;SDS011;13449;49.374;8.584;2023-07-08T15:46:54;5.95;;;2.90;;
24485;SDS011;13449;49.374;8.584;2023-07-08T15:49:24;6.38;;;2.28;;
24485;SDS011;13449;49.374;8.584;2023-07-08T15:51:56;3.83;;;1.88;;
24485;SDS011;13449;49.374;8.584;2023-07-08T15:54:25;5.15;;;2.30;;
24485;SDS011;13449;49.374;8.584;2023-07-08T15:56:52;5.90;;;2.35;;
24485;SDS011;13449;49.374;8.584;2023-07-08T15:59:21;5.80;;;2.20;;
24485;SDS011;13449;49.374;8.584;2023-07-08T16:01:51;10.18;;;5.90;;
24485;SDS011;13449;49.374;8.584;2023-07-08T16:04:23;8.98;;;4.43;;
24485;SDS011;13449;49.374;8.584;2023-07-08T16:06:52;6.30;;;2.10;;
24485;SDS011;13449;49.374;8.584;2023-07-08T16:09:19;19.92;;;2.13;;
24485;SDS011;13449;49.374;8.584;2023-07-08T16:11:45;11.40;;;2.13;;